Seatac, Washington
Current Conditions -  °F | °C
As of 7:53 AM on Saturday 20 Dec 2014 (Local Time) from KSEA Reporting Station
Light Rain Light Rain  
Wind Chill: 41°   Ceiling: 3100
Heat Index: 45°   Visibility: 7mi
Dew Point: 41°   Wind: 7mph
Humidity: 86%   Direction: 100°E
Pressure: 29.64"   Gusts: NA
Location:  47.45°N, 122.308°W
Report Text: KSEA 201553Z 10006KT 7SM -RA OVC031 07/05 A2964 RMK AO2 SLP042 P0006 T00720050
Loading
Personal Weather Stations






























Interactive Weather Map New forecast layout! Learn more

10-Day Weather Forecast

Advertisements
Track Severe Weather on mobile